WABB

Frans Kaisiepo Airport

Biak-Supiori Island, Indonesia
TAF WABB 251700Z 2518/2700 00000KT 9999 FEW018 BECMG 2522/2600 08007KT SCT018
Issued Valid From Valid To
Sep-25 @ 17:00 UTC
(44 minutes ago)
Sep-25 @ 18:00 UTC
(in 16 minutes)
Sep-27 @ 00:00 UTC
(-1 days ago)
Sep-25 @ 18:00 to Sep-25 @ 22:00
TAF WABB 251700Z 2518/2700 00000KT 9999 FEW018
Visibility Clouds
10,000+ meters
  • Few at 1,800' AGL
Becoming Sep-25 @ 22:00 to Sep-27 @ 00:00
BECMG 2522/2600 08007KT SCT018
Wind Visibility Clouds
80° at 7 knots 10,000+ meters
  • Scattered at 1,800' AGL
TAF WABB 251700Z 2518/2700 00000KT 9999 FEW018 BECMG 2522/2600 08007KT SCT018
Issued Sep-25 @ 17:00 UTC
(44 minutes ago)
Valid From Sep-25 @ 18:00 UTC
(in 16 minutes)
Valid To Sep-27 @ 00:00 UTC
(-1 days ago)
Sep-25 @ 18:00 - Sep-25 @ 22:00
Clouds
  • Few at 1,800' AGL
Becoming Sep-25 @ 22:00 - Sep-27 @ 00:00
Wind Visibility
80° at 7 knots 10,000+ meters
Clouds
  • Scattered at 1,800' AGL